sensor_id;sensor_type;location;lat;lon;timestamp;temperature;humidity
7461;DHT22;6757;52.258;12.840;2023-05-10T00:01:34;11.70;84.10
7461;DHT22;6757;52.258;12.840;2023-05-10T00:04:01;11.70;84.30
7461;DHT22;6757;52.258;12.840;2023-05-10T00:06:30;11.70;84.60
7461;DHT22;6757;52.258;12.840;2023-05-10T00:08:56;11.60;84.90
7461;DHT22;6757;52.258;12.840;2023-05-10T00:11:23;11.60;85.20
7461;DHT22;6757;52.258;12.840;2023-05-10T00:13:50;11.60;85.60
7461;DHT22;6757;52.258;12.840;2023-05-10T00:16:17;11.50;85.80
7461;DHT22;6757;52.258;12.840;2023-05-10T00:18:44;11.50;86.10
7461;DHT22;6757;52.258;12.840;2023-05-10T00:21:11;11.40;86.40
7461;DHT22;6757;52.258;12.840;2023-05-10T00:23:39;11.40;86.60
7461;DHT22;6757;52.258;12.840;2023-05-10T00:26:06;11.40;87.20
7461;DHT22;6757;52.258;12.840;2023-05-10T00:28:33;11.30;87.40
7461;DHT22;6757;52.258;12.840;2023-05-10T00:31:00;11.30;87.70
7461;DHT22;6757;52.258;12.840;2023-05-10T00:33:27;11.30;87.90
7461;DHT22;6757;52.258;12.840;2023-05-10T00:35:54;11.30;88.30
7461;DHT22;6757;52.258;12.840;2023-05-10T00:38:21;11.20;88.60
7461;DHT22;6757;52.258;12.840;2023-05-10T00:40:49;11.20;89.00
7461;DHT22;6757;52.258;12.840;2023-05-10T00:43:16;11.20;89.30
7461;DHT22;6757;52.258;12.840;2023-05-10T00:45:43;11.00;89.50
7461;DHT22;6757;52.258;12.840;2023-05-10T00:48:10;11.10;89.80
7461;DHT22;6757;52.258;12.840;2023-05-10T00:50:37;11.10;90.10
7461;DHT22;6757;52.258;12.840;2023-05-10T00:53:04;11.00;90.20
7461;DHT22;6757;52.258;12.840;2023-05-10T00:55:31;11.00;90.40
7461;DHT22;6757;52.258;12.840;2023-05-10T00:57:59;11.00;90.60
7461;DHT22;6757;52.258;12.840;2023-05-10T01:00:27;11.00;90.70
7461;DHT22;6757;52.258;12.840;2023-05-10T01:02:55;10.90;90.90
7461;DHT22;6757;52.258;12.840;2023-05-10T01:05:22;10.90;91.10
7461;DHT22;6757;52.258;12.840;2023-05-10T01:07:48;10.80;91.20
7461;DHT22;6757;52.258;12.840;2023-05-10T01:10:15;10.90;91.40
7461;DHT22;6757;52.258;12.840;2023-05-10T01:12:45;10.80;91.50
7461;DHT22;6757;52.258;12.840;2023-05-10T01:15:15;10.70;91.70
7461;DHT22;6757;52.258;12.840;2023-05-10T01:17:44;10.70;91.90
7461;DHT22;6757;52.258;12.840;2023-05-10T01:20:12;10.70;92.10
7461;DHT22;6757;52.258;12.840;2023-05-10T01:22:53;10.70;92.20
7461;DHT22;6757;52.258;12.840;2023-05-10T01:29:19;10.60;92.60
7461;DHT22;6757;52.258;12.840;2023-05-10T01:32:14;10.60;92.80
7461;DHT22;6757;52.258;12.840;2023-05-10T01:34:49;10.50;93.10
7461;DHT22;6757;52.258;12.840;2023-05-10T01:37:22;10.50;93.40
7461;DHT22;6757;52.258;12.840;2023-05-10T01:40:08;10.60;93.60
7461;DHT22;6757;52.258;12.840;2023-05-10T01:42:47;10.50;93.70
7461;DHT22;6757;52.258;12.840;2023-05-10T01:45:21;10.40;93.90
7461;DHT22;6757;52.258;12.840;2023-05-10T01:48:02;10.40;94.10
7461;DHT22;6757;52.258;12.840;2023-05-10T01:50:32;10.40;94.40
7461;DHT22;6757;52.258;12.840;2023-05-10T01:53:02;10.30;94.60
7461;DHT22;6757;52.258;12.840;2023-05-10T01:55:32;10.30;94.80
7461;DHT22;6757;52.258;12.840;2023-05-10T01:58:02;10.30;95.00
7461;DHT22;6757;52.258;12.840;2023-05-10T02:00:32;10.30;95.20
7461;DHT22;6757;52.258;12.840;2023-05-10T02:03:05;10.30;95.40
7461;DHT22;6757;52.258;12.840;2023-05-10T02:05:34;10.30;95.60
7461;DHT22;6757;52.258;12.840;2023-05-10T02:08:03;10.20;95.70
7461;DHT22;6757;52.258;12.840;2023-05-10T02:10:32;10.20;95.90
7461;DHT22;6757;52.258;12.840;2023-05-10T02:13:00;10.20;96.10
7461;DHT22;6757;52.258;12.840;2023-05-10T02:15:29;10.20;96.40
7461;DHT22;6757;52.258;12.840;2023-05-10T02:17:58;10.10;96.50
7461;DHT22;6757;52.258;12.840;2023-05-10T02:20:28;10.10;96.70
7461;DHT22;6757;52.258;12.840;2023-05-10T02:22:57;10.10;96.90
7461;DHT22;6757;52.258;12.840;2023-05-10T02:25:25;10.00;97.00
7461;DHT22;6757;52.258;12.840;2023-05-10T02:27:55;10.10;97.20
7461;DHT22;6757;52.258;12.840;2023-05-10T02:30:24;10.10;97.40
7461;DHT22;6757;52.258;12.840;2023-05-10T02:32:51;10.00;97.60
7461;DHT22;6757;52.258;12.840;2023-05-10T02:35:21;10.00;97.80
7461;DHT22;6757;52.258;12.840;2023-05-10T02:37:49;10.00;98.00
7461;DHT22;6757;52.258;12.840;2023-05-10T02:40:17;10.00;98.20
7461;DHT22;6757;52.258;12.840;2023-05-10T02:42:45;10.00;98.40
7461;DHT22;6757;52.258;12.840;2023-05-10T02:45:17;10.00;98.60
7461;DHT22;6757;52.258;12.840;2023-05-10T02:47:45;9.90;99.10
7461;DHT22;6757;52.258;12.840;2023-05-10T02:50:12;9.90;99.30
7461;DHT22;6757;52.258;12.840;2023-05-10T02:52:44;9.90;99.50
7461;DHT22;6757;52.258;12.840;2023-05-10T02:55:14;9.90;99.70
7461;DHT22;6757;52.258;12.840;2023-05-10T02:57:48;9.80;99.80
7461;DHT22;6757;52.258;12.840;2023-05-10T03:00:17;9.80;99.90
7461;DHT22;6757;52.258;12.840;2023-05-10T03:02:45;9.80;99.90
7461;DHT22;6757;52.258;12.840;2023-05-10T03:05:12;9.80;99.90
7461;DHT22;6757;52.258;12.840;2023-05-10T03:07:40;9.80;99.90
7461;DHT22;6757;52.258;12.840;2023-05-10T03:10:07;9.70;99.90
7461;DHT22;6757;52.258;12.840;2023-05-10T03:12:47;9.70;99.90
7461;DHT22;6757;52.258;12.840;2023-05-10T03:15:24;9.70;99.90
7461;DHT22;6757;52.258;12.840;2023-05-10T03:18:06;9.60;99.90
7461;DHT22;6757;52.258;12.840;2023-05-10T03:20:36;9.60;99.90
7461;DHT22;6757;52.258;12.840;2023-05-10T03:23:13;9.60;99.90
7461;DHT22;6757;52.258;12.840;2023-05-10T03:25:48;9.60;99.90
7461;DHT22;6757;52.258;12.840;2023-05-10T03:28:17;9.50;99.90
7461;DHT22;6757;52.258;12.840;2023-05-10T03:30:45;9.50;99.90
7461;DHT22;6757;52.258;12.840;2023-05-10T03:33:12;9.50;99.90
7461;DHT22;6757;52.258;12.840;2023-05-10T03:35:39;9.50;99.90
7461;DHT22;6757;52.258;12.840;2023-05-10T03:38:06;9.50;99.90
7461;DHT22;6757;52.258;12.840;2023-05-10T03:40:35;9.50;99.90
7461;DHT22;6757;52.258;12.840;2023-05-10T03:43:02;9.40;99.90
7461;DHT22;6757;52.258;12.840;2023-05-10T03:45:28;9.40;99.90
7461;DHT22;6757;52.258;12.840;2023-05-10T03:47:56;9.40;99.90
7461;DHT22;6757;52.258;12.840;2023-05-10T03:50:24;9.40;99.90
7461;DHT22;6757;52.258;12.840;2023-05-10T03:52:51;9.40;99.90
7461;DHT22;6757;52.258;12.840;2023-05-10T03:55:20;9.30;99.90
7461;DHT22;6757;52.258;12.840;2023-05-10T03:57:47;9.30;99.90
7461;DHT22;6757;52.258;12.840;2023-05-10T04:00:15;9.30;99.90
7461;DHT22;6757;52.258;12.840;2023-05-10T04:02:42;9.30;99.90
7461;DHT22;6757;52.258;12.840;2023-05-10T04:05:09;9.30;99.90
7461;DHT22;6757;52.258;12.840;2023-05-10T04:07:37;9.30;99.90
7461;DHT22;6757;52.258;12.840;2023-05-10T04:10:04;9.30;99.90
7461;DHT22;6757;52.258;12.840;2023-05-10T04:12:33;9.30;99.90
7461;DHT22;6757;52.258;12.840;2023-05-10T04:15:00;9.30;99.90
7461;DHT22;6757;52.258;12.840;2023-05-10T04:17:27;9.30;99.90
7461;DHT22;6757;52.258;12.840;2023-05-10T04:19:54;9.30;99.90
7461;DHT22;6757;52.258;12.840;2023-05-10T04:22:22;9.30;99.90
7461;DHT22;6757;52.258;12.840;2023-05-10T04:24:49;9.30;99.90
7461;DHT22;6757;52.258;12.840;2023-05-10T04:27:16;9.30;99.90
7461;DHT22;6757;52.258;12.840;2023-05-10T04:29:44;9.30;99.90
7461;DHT22;6757;52.258;12.840;2023-05-10T04:32:11;9.40;99.90
7461;DHT22;6757;52.258;12.840;2023-05-10T04:34:38;9.40;99.90
7461;DHT22;6757;52.258;12.840;2023-05-10T04:37:04;9.40;99.90
7461;DHT22;6757;52.258;12.840;2023-05-10T04:39:32;9.40;99.90
7461;DHT22;6757;52.258;12.840;2023-05-10T04:42:00;9.40;99.90
7461;DHT22;6757;52.258;12.840;2023-05-10T04:44:28;9.50;99.90
7461;DHT22;6757;52.258;12.840;2023-05-10T04:46:56;9.50;99.90
7461;DHT22;6757;52.258;12.840;2023-05-10T04:49:23;9.60;99.90
7461;DHT22;6757;52.258;12.840;2023-05-10T04:51:50;9.60;99.90
7461;DHT22;6757;52.258;12.840;2023-05-10T04:54:17;9.60;99.90
7461;DHT22;6757;52.258;12.840;2023-05-10T04:56:44;9.60;99.90
7461;DHT22;6757;52.258;12.840;2023-05-10T04:59:11;9.70;99.90
7461;DHT22;6757;52.258;12.840;2023-05-10T05:01:37;9.70;99.90
7461;DHT22;6757;52.258;12.840;2023-05-10T05:04:06;9.80;99.90
7461;DHT22;6757;52.258;12.840;2023-05-10T05:06:33;9.90;99.90
7461;DHT22;6757;52.258;12.840;2023-05-10T05:09:00;9.90;99.90
7461;DHT22;6757;52.258;12.840;2023-05-10T05:11:27;9.90;99.90
7461;DHT22;6757;52.258;12.840;2023-05-10T05:13:53;10.00;99.90
7461;DHT22;6757;52.258;12.840;2023-05-10T05:16:20;10.10;99.90
7461;DHT22;6757;52.258;12.840;2023-05-10T05:18:47;10.10;99.90
7461;DHT22;6757;52.258;12.840;2023-05-10T05:21:16;10.10;99.90
7461;DHT22;6757;52.258;12.840;2023-05-10T05:23:45;10.20;99.90
7461;DHT22;6757;52.258;12.840;2023-05-10T05:26:12;10.30;99.90
7461;DHT22;6757;52.258;12.840;2023-05-10T05:28:40;10.40;99.90
7461;DHT22;6757;52.258;12.840;2023-05-10T05:31:07;10.50;99.90
7461;DHT22;6757;52.258;12.840;2023-05-10T05:33:34;10.50;99.90
7461;DHT22;6757;52.258;12.840;2023-05-10T05:36:02;10.60;99.90
7461;DHT22;6757;52.258;12.840;2023-05-10T05:38:31;10.60;99.90
7461;DHT22;6757;52.258;12.840;2023-05-10T05:40:58;10.70;99.90
7461;DHT22;6757;52.258;12.840;2023-05-10T05:43:25;10.80;99.90
7461;DHT22;6757;52.258;12.840;2023-05-10T05:57:12;11.90;99.90
7461;DHT22;6757;52.258;12.840;2023-05-10T05:59:39;11.40;99.90
7461;DHT22;6757;52.258;12.840;2023-05-10T06:02:09;11.50;99.90
7461;DHT22;6757;52.258;12.840;2023-05-10T06:04:36;11.60;99.90
7461;DHT22;6757;52.258;12.840;2023-05-10T06:07:03;11.70;99.90
7461;DHT22;6757;52.258;12.840;2023-05-10T06:09:29;11.80;99.90
7461;DHT22;6757;52.258;12.840;2023-05-10T06:11:56;11.90;99.90
7461;DHT22;6757;52.258;12.840;2023-05-10T06:14:25;12.00;99.90
7461;DHT22;6757;52.258;12.840;2023-05-10T06:16:51;12.10;99.90
7461;DHT22;6757;52.258;12.840;2023-05-10T06:19:18;12.10;99.90
7461;DHT22;6757;52.258;12.840;2023-05-10T06:21:45;12.30;99.90
7461;DHT22;6757;52.258;12.840;2023-05-10T06:24:12;12.40;99.90
7461;DHT22;6757;52.258;12.840;2023-05-10T06:26:39;12.40;99.90
7461;DHT22;6757;52.258;12.840;2023-05-10T06:29:06;12.50;99.90
7461;DHT22;6757;52.258;12.840;2023-05-10T06:31:34;12.60;99.90
7461;DHT22;6757;52.258;12.840;2023-05-10T06:34:01;12.70;99.90
7461;DHT22;6757;52.258;12.840;2023-05-10T06:36:27;12.90;99.90
7461;DHT22;6757;52.258;12.840;2023-05-10T06:38:54;13.00;99.90
7461;DHT22;6757;52.258;12.840;2023-05-10T06:41:21;13.10;99.90
7461;DHT22;6757;52.258;12.840;2023-05-10T06:43:49;13.20;99.90
7461;DHT22;6757;52.258;12.840;2023-05-10T06:46:16;13.30;99.90
7461;DHT22;6757;52.258;12.840;2023-05-10T06:48:44;13.40;99.90
7461;DHT22;6757;52.258;12.840;2023-05-10T06:51:11;13.60;99.90
7461;DHT22;6757;52.258;12.840;2023-05-10T06:53:38;13.70;99.90
7461;DHT22;6757;52.258;12.840;2023-05-10T06:56:05;13.80;99.90
7461;DHT22;6757;52.258;12.840;2023-05-10T06:58:32;13.90;99.90
7461;DHT22;6757;52.258;12.840;2023-05-10T07:01:02;14.00;99.90
7461;DHT22;6757;52.258;12.840;2023-05-10T07:03:29;14.10;99.90
7461;DHT22;6757;52.258;12.840;2023-05-10T07:06:01;14.20;99.90
7461;DHT22;6757;52.258;12.840;2023-05-10T07:08:30;14.30;99.90
7461;DHT22;6757;52.258;12.840;2023-05-10T07:11:01;14.40;99.90
7461;DHT22;6757;52.258;12.840;2023-05-10T07:13:29;14.50;99.90
7461;DHT22;6757;52.258;12.840;2023-05-10T07:15:56;14.60;99.90
7461;DHT22;6757;52.258;12.840;2023-05-10T07:18:23;14.60;99.70
7461;DHT22;6757;52.258;12.840;2023-05-10T07:20:51;14.70;99.50
7461;DHT22;6757;52.258;12.840;2023-05-10T07:23:19;14.80;99.50
7461;DHT22;6757;52.258;12.840;2023-05-10T07:25:46;14.80;99.30
7461;DHT22;6757;52.258;12.840;2023-05-10T07:28:14;14.90;99.20
7461;DHT22;6757;52.258;12.840;2023-05-10T07:30:41;15.00;99.00
7461;DHT22;6757;52.258;12.840;2023-05-10T07:33:09;15.00;98.70
7461;DHT22;6757;52.258;12.840;2023-05-10T07:35:37;15.10;98.60
7461;DHT22;6757;52.258;12.840;2023-05-10T07:38:04;15.20;98.20
7461;DHT22;6757;52.258;12.840;2023-05-10T07:40:33;15.30;98.10
7461;DHT22;6757;52.258;12.840;2023-05-10T07:42:59;15.30;98.00
7461;DHT22;6757;52.258;12.840;2023-05-10T07:45:27;15.40;98.00
7461;DHT22;6757;52.258;12.840;2023-05-10T07:47:54;15.40;97.90
7461;DHT22;6757;52.258;12.840;2023-05-10T07:50:21;15.50;97.90
7461;DHT22;6757;52.258;12.840;2023-05-10T07:52:48;15.60;98.00
7461;DHT22;6757;52.258;12.840;2023-05-10T07:55:15;15.60;97.90
7461;DHT22;6757;52.258;12.840;2023-05-10T07:57:43;15.70;97.80
7461;DHT22;6757;52.258;12.840;2023-05-10T08:00:12;15.80;97.80
7461;DHT22;6757;52.258;12.840;2023-05-10T08:02:40;15.80;97.60
7461;DHT22;6757;52.258;12.840;2023-05-10T08:05:07;15.90;97.30
7461;DHT22;6757;52.258;12.840;2023-05-10T08:07:34;16.00;97.10
7461;DHT22;6757;52.258;12.840;2023-05-10T08:10:02;16.00;96.80
7461;DHT22;6757;52.258;12.840;2023-05-10T08:12:29;16.10;96.70
7461;DHT22;6757;52.258;12.840;2023-05-10T08:14:57;16.10;96.50
7461;DHT22;6757;52.258;12.840;2023-05-10T08:17:24;16.20;96.50
7461;DHT22;6757;52.258;12.840;2023-05-10T08:19:51;16.30;96.30
7461;DHT22;6757;52.258;12.840;2023-05-10T08:22:17;16.30;96.20
7461;DHT22;6757;52.258;12.840;2023-05-10T08:24:44;16.40;96.20
7461;DHT22;6757;52.258;12.840;2023-05-10T08:27:11;16.50;96.10
7461;DHT22;6757;52.258;12.840;2023-05-10T08:29:38;16.60;96.00
7461;DHT22;6757;52.258;12.840;2023-05-10T08:32:06;16.60;95.80
7461;DHT22;6757;52.258;12.840;2023-05-10T08:34:33;16.70;95.60
7461;DHT22;6757;52.258;12.840;2023-05-10T08:37:00;16.80;95.40
7461;DHT22;6757;52.258;12.840;2023-05-10T08:39:27;16.90;95.20
7461;DHT22;6757;52.258;12.840;2023-05-10T08:41:54;16.90;95.10
7461;DHT22;6757;52.258;12.840;2023-05-10T08:44:25;17.00;94.90
7461;DHT22;6757;52.258;12.840;2023-05-10T08:46:53;17.10;94.90
7461;DHT22;6757;52.258;12.840;2023-05-10T08:49:23;17.20;94.80
7461;DHT22;6757;52.258;12.840;2023-05-10T08:51:55;17.30;94.60
7461;DHT22;6757;52.258;12.840;2023-05-10T08:54:22;17.40;94.50
7461;DHT22;6757;52.258;12.840;2023-05-10T08:56:50;17.40;94.30
7461;DHT22;6757;52.258;12.840;2023-05-10T08:59:17;17.50;94.20
7461;DHT22;6757;52.258;12.840;2023-05-10T09:01:45;17.60;94.10
7461;DHT22;6757;52.258;12.840;2023-05-10T09:04:14;17.70;94.00
7461;DHT22;6757;52.258;12.840;2023-05-10T09:06:42;17.80;93.70
7461;DHT22;6757;52.258;12.840;2023-05-10T09:09:09;17.80;93.30
7461;DHT22;6757;52.258;12.840;2023-05-10T09:11:36;17.90;93.20
7461;DHT22;6757;52.258;12.840;2023-05-10T09:14:04;17.90;93.10
7461;DHT22;6757;52.258;12.840;2023-05-10T09:16:31;18.00;92.90
7461;DHT22;6757;52.258;12.840;2023-05-10T09:18:57;18.10;92.70
7461;DHT22;6757;52.258;12.840;2023-05-10T09:21:25;18.10;92.40
7461;DHT22;6757;52.258;12.840;2023-05-10T09:23:53;18.20;92.40
7461;DHT22;6757;52.258;12.840;2023-05-10T09:26:22;18.30;92.40
7461;DHT22;6757;52.258;12.840;2023-05-10T09:28:53;18.40;92.30
7461;DHT22;6757;52.258;12.840;2023-05-10T09:31:21;18.40;91.80
7461;DHT22;6757;52.258;12.840;2023-05-10T09:33:49;18.40;91.50
7461;DHT22;6757;52.258;12.840;2023-05-10T09:36:17;18.50;91.50
7461;DHT22;6757;52.258;12.840;2023-05-10T09:38:48;18.60;91.60
7461;DHT22;6757;52.258;12.840;2023-05-10T09:41:18;18.60;91.40
7461;DHT22;6757;52.258;12.840;2023-05-10T09:43:46;18.70;91.10
7461;DHT22;6757;52.258;12.840;2023-05-10T09:46:13;18.70;90.90
7461;DHT22;6757;52.258;12.840;2023-05-10T09:48:42;18.80;91.00
7461;DHT22;6757;52.258;12.840;2023-05-10T09:51:10;18.90;91.00
7461;DHT22;6757;52.258;12.840;2023-05-10T09:53:37;19.00;90.90
7461;DHT22;6757;52.258;12.840;2023-05-10T09:56:04;19.10;90.90
7461;DHT22;6757;52.258;12.840;2023-05-10T09:58:36;19.20;90.90
7461;DHT22;6757;52.258;12.840;2023-05-10T10:01:04;19.30;90.60
7461;DHT22;6757;52.258;12.840;2023-05-10T10:03:31;19.40;90.20
7461;DHT22;6757;52.258;12.840;2023-05-10T10:05:58;19.50;90.00
7461;DHT22;6757;52.258;12.840;2023-05-10T10:08:25;19.50;89.80
7461;DHT22;6757;52.258;12.840;2023-05-10T10:10:53;19.60;89.80
7461;DHT22;6757;52.258;12.840;2023-05-10T10:13:19;19.60;88.90
7461;DHT22;6757;52.258;12.840;2023-05-10T10:15:48;19.70;88.70
7461;DHT22;6757;52.258;12.840;2023-05-10T10:18:16;19.70;88.50
7461;DHT22;6757;52.258;12.840;2023-05-10T10:20:44;19.80;88.70
7461;DHT22;6757;52.258;12.840;2023-05-10T10:23:12;19.90;88.30
7461;DHT22;6757;52.258;12.840;2023-05-10T10:25:39;20.00;87.80
7461;DHT22;6757;52.258;12.840;2023-05-10T10:28:16;20.10;87.40
7461;DHT22;6757;52.258;12.840;2023-05-10T10:30:52;20.10;87.00
7461;DHT22;6757;52.258;12.840;2023-05-10T10:33:33;20.20;86.90
7461;DHT22;6757;52.258;12.840;2023-05-10T10:36:06;20.20;86.30
7461;DHT22;6757;52.258;12.840;2023-05-10T10:38:37;20.30;85.60
7461;DHT22;6757;52.258;12.840;2023-05-10T10:41:29;20.30;85.30
7461;DHT22;6757;52.258;12.840;2023-05-10T10:44:23;20.40;85.50
7461;DHT22;6757;52.258;12.840;2023-05-10T10:47:03;20.60;85.80
7461;DHT22;6757;52.258;12.840;2023-05-10T10:49:37;20.70;85.00
7461;DHT22;6757;52.258;12.840;2023-05-10T10:52:30;20.80;84.00
7461;DHT22;6757;52.258;12.840;2023-05-10T10:55:01;20.80;83.10
7461;DHT22;6757;52.258;12.840;2023-05-10T10:57:43;20.80;82.70
7461;DHT22;6757;52.258;12.840;2023-05-10T11:00:25;20.90;82.70
7461;DHT22;6757;52.258;12.840;2023-05-10T11:02:57;21.00;82.80
7461;DHT22;6757;52.258;12.840;2023-05-10T11:05:36;21.00;82.60
7461;DHT22;6757;52.258;12.840;2023-05-10T11:08:12;21.10;81.30
7461;DHT22;6757;52.258;12.840;2023-05-10T11:10:50;21.10;80.00
7461;DHT22;6757;52.258;12.840;2023-05-10T11:13:26;21.10;79.00
7461;DHT22;6757;52.258;12.840;2023-05-10T11:15:54;21.20;79.10
7461;DHT22;6757;52.258;12.840;2023-05-10T11:18:25;21.20;79.00
7461;DHT22;6757;52.258;12.840;2023-05-10T11:20:57;21.30;78.60
7461;DHT22;6757;52.258;12.840;2023-05-10T11:23:30;21.30;78.50
7461;DHT22;6757;52.258;12.840;2023-05-10T11:25:58;21.40;78.30
7461;DHT22;6757;52.258;12.840;2023-05-10T11:28:26;21.50;77.80
7461;DHT22;6757;52.258;12.840;2023-05-10T11:30:54;21.60;77.60
7461;DHT22;6757;52.258;12.840;2023-05-10T11:33:22;21.70;77.20
7461;DHT22;6757;52.258;12.840;2023-05-10T11:35:50;21.80;76.80
7461;DHT22;6757;52.258;12.840;2023-05-10T11:38:17;21.90;75.70
7461;DHT22;6757;52.258;12.840;2023-05-10T11:40:44;22.10;75.20
7461;DHT22;6757;52.258;12.840;2023-05-10T11:43:11;22.30;75.00
7461;DHT22;6757;52.258;12.840;2023-05-10T11:45:38;22.50;74.90
7461;DHT22;6757;52.258;12.840;2023-05-10T11:48:07;22.70;74.70
7461;DHT22;6757;52.258;12.840;2023-05-10T11:50:35;22.90;74.00
7461;DHT22;6757;52.258;12.840;2023-05-10T11:53:02;23.00;73.70
7461;DHT22;6757;52.258;12.840;2023-05-10T11:55:29;23.10;73.50
7461;DHT22;6757;52.258;12.840;2023-05-10T11:58:00;23.20;73.60
7461;DHT22;6757;52.258;12.840;2023-05-10T12:00:28;23.30;73.70
7461;DHT22;6757;52.258;12.840;2023-05-10T12:02:56;23.50;73.20
7461;DHT22;6757;52.258;12.840;2023-05-10T12:05:23;23.60;72.40
7461;DHT22;6757;52.258;12.840;2023-05-10T12:07:52;23.80;71.60
7461;DHT22;6757;52.258;12.840;2023-05-10T12:10:25;23.80;70.90
7461;DHT22;6757;52.258;12.840;2023-05-10T12:12:53;23.90;70.90
7461;DHT22;6757;52.258;12.840;2023-05-10T12:15:21;23.90;70.60
7461;DHT22;6757;52.258;12.840;2023-05-10T12:17:50;24.00;70.70
7461;DHT22;6757;52.258;12.840;2023-05-10T12:20:19;24.30;70.50
7461;DHT22;6757;52.258;12.840;2023-05-10T12:22:49;24.60;69.50
7461;DHT22;6757;52.258;12.840;2023-05-10T12:25:18;24.60;68.80
7461;DHT22;6757;52.258;12.840;2023-05-10T12:27:49;24.80;68.90
7461;DHT22;6757;52.258;12.840;2023-05-10T12:30:21;25.00;68.80
7461;DHT22;6757;52.258;12.840;2023-05-10T12:32:49;25.10;68.60
7461;DHT22;6757;52.258;12.840;2023-05-10T12:35:16;25.30;68.20
7461;DHT22;6757;52.258;12.840;2023-05-10T12:37:46;25.50;67.80
7461;DHT22;6757;52.258;12.840;2023-05-10T12:40:13;25.70;67.20
7461;DHT22;6757;52.258;12.840;2023-05-10T12:42:42;25.90;67.00
7461;DHT22;6757;52.258;12.840;2023-05-10T12:45:10;25.80;66.50
7461;DHT22;6757;52.258;12.840;2023-05-10T12:47:38;25.60;66.20
7461;DHT22;6757;52.258;12.840;2023-05-10T12:50:05;25.30;66.40
7461;DHT22;6757;52.258;12.840;2023-05-10T12:52:33;25.20;66.90
7461;DHT22;6757;52.258;12.840;2023-05-10T12:55:00;25.30;67.30
7461;DHT22;6757;52.258;12.840;2023-05-10T12:57:28;25.60;67.20
7461;DHT22;6757;52.258;12.840;2023-05-10T12:59:57;25.90;66.70
7461;DHT22;6757;52.258;12.840;2023-05-10T13:02:24;26.20;66.00
7461;DHT22;6757;52.258;12.840;2023-05-10T13:04:51;26.40;65.10
7461;DHT22;6757;52.258;12.840;2023-05-10T13:07:17;26.60;64.60
7461;DHT22;6757;52.258;12.840;2023-05-10T13:09:44;27.00;64.40
7461;DHT22;6757;52.258;12.840;2023-05-10T13:12:11;27.40;64.00
7461;DHT22;6757;52.258;12.840;2023-05-10T13:14:38;27.70;62.50
7461;DHT22;6757;52.258;12.840;2023-05-10T13:17:08;27.70;61.90
7461;DHT22;6757;52.258;12.840;2023-05-10T13:19:35;27.30;61.60
7461;DHT22;6757;52.258;12.840;2023-05-10T13:22:02;26.90;62.00
7461;DHT22;6757;52.258;12.840;2023-05-10T13:24:29;26.60;62.60
7461;DHT22;6757;52.258;12.840;2023-05-10T13:26:56;26.30;62.90
7461;DHT22;6757;52.258;12.840;2023-05-10T13:29:23;25.90;63.10
7461;DHT22;6757;52.258;12.840;2023-05-10T13:31:50;25.70;63.30
7461;DHT22;6757;52.258;12.840;2023-05-10T13:34:18;25.60;63.50
7461;DHT22;6757;52.258;12.840;2023-05-10T13:36:46;25.50;63.70
7461;DHT22;6757;52.258;12.840;2023-05-10T13:39:14;25.30;64.10
7461;DHT22;6757;52.258;12.840;2023-05-10T13:41:41;25.10;64.20
7461;DHT22;6757;52.258;12.840;2023-05-10T13:44:08;24.90;64.40
7461;DHT22;6757;52.258;12.840;2023-05-10T13:46:36;24.90;64.60
7461;DHT22;6757;52.258;12.840;2023-05-10T13:49:04;24.90;64.80
7461;DHT22;6757;52.258;12.840;2023-05-10T13:51:33;24.80;64.80
7461;DHT22;6757;52.258;12.840;2023-05-10T13:54:01;24.60;65.00
7461;DHT22;6757;52.258;12.840;2023-05-10T13:56:28;24.50;65.60
7461;DHT22;6757;52.258;12.840;2023-05-10T13:58:56;24.30;66.80
7461;DHT22;6757;52.258;12.840;2023-05-10T14:01:23;24.00;69.10
7461;DHT22;6757;52.258;12.840;2023-05-10T14:03:50;23.70;72.20
7461;DHT22;6757;52.258;12.840;2023-05-10T14:06:17;23.40;73.80
7461;DHT22;6757;52.258;12.840;2023-05-10T14:08:45;23.10;75.30
7461;DHT22;6757;52.258;12.840;2023-05-10T14:11:12;22.80;76.50
7461;DHT22;6757;52.258;12.840;2023-05-10T14:13:39;22.50;77.90
7461;DHT22;6757;52.258;12.840;2023-05-10T14:16:06;22.30;78.80
7461;DHT22;6757;52.258;12.840;2023-05-10T14:18:33;22.10;79.80
7461;DHT22;6757;52.258;12.840;2023-05-10T14:21:01;21.80;80.50
7461;DHT22;6757;52.258;12.840;2023-05-10T14:23:28;21.60;81.20
7461;DHT22;6757;52.258;12.840;2023-05-10T14:25:57;21.40;82.20
7461;DHT22;6757;52.258;12.840;2023-05-10T14:28:23;21.30;82.90
7461;DHT22;6757;52.258;12.840;2023-05-10T14:30:50;21.10;83.70
7461;DHT22;6757;52.258;12.840;2023-05-10T14:33:17;21.00;84.20
7461;DHT22;6757;52.258;12.840;2023-05-10T14:35:44;20.90;84.80
7461;DHT22;6757;52.258;12.840;2023-05-10T14:38:11;20.80;85.30
7461;DHT22;6757;52.258;12.840;2023-05-10T14:40:38;20.80;85.80
7461;DHT22;6757;52.258;12.840;2023-05-10T14:43:06;20.70;86.20
7461;DHT22;6757;52.258;12.840;2023-05-10T14:45:33;20.60;86.90
7461;DHT22;6757;52.258;12.840;2023-05-10T14:48:00;20.50;87.30
7461;DHT22;6757;52.258;12.840;2023-05-10T14:50:29;20.40;87.70
7461;DHT22;6757;52.258;12.840;2023-05-10T14:52:57;20.40;88.10
7461;DHT22;6757;52.258;12.840;2023-05-10T14:55:24;20.40;88.50
7461;DHT22;6757;52.258;12.840;2023-05-10T14:57:50;20.30;88.80
7461;DHT22;6757;52.258;12.840;2023-05-10T15:00:20;20.30;89.10
7461;DHT22;6757;52.258;12.840;2023-05-10T15:02:47;20.20;89.60
7461;DHT22;6757;52.258;12.840;2023-05-10T15:05:14;20.10;90.00
7461;DHT22;6757;52.258;12.840;2023-05-10T15:07:41;20.10;90.20
7461;DHT22;6757;52.258;12.840;2023-05-10T15:10:09;20.00;90.40
7461;DHT22;6757;52.258;12.840;2023-05-10T15:12:36;20.00;90.50
7461;DHT22;6757;52.258;12.840;2023-05-10T15:15:04;20.00;90.60
7461;DHT22;6757;52.258;12.840;2023-05-10T15:17:33;20.00;90.70
7461;DHT22;6757;52.258;12.840;2023-05-10T15:20:00;20.00;91.10
7461;DHT22;6757;52.258;12.840;2023-05-10T15:22:28;20.00;91.20
7461;DHT22;6757;52.258;12.840;2023-05-10T15:24:57;20.00;91.40
7461;DHT22;6757;52.258;12.840;2023-05-10T15:27:23;20.00;91.70
7461;DHT22;6757;52.258;12.840;2023-05-10T15:29:50;20.00;91.80
7461;DHT22;6757;52.258;12.840;2023-05-10T15:32:17;20.00;92.00
7461;DHT22;6757;52.258;12.840;2023-05-10T15:34:46;19.90;92.10
7461;DHT22;6757;52.258;12.840;2023-05-10T15:37:12;19.90;92.20
7461;DHT22;6757;52.258;12.840;2023-05-10T15:39:39;19.90;92.20
7461;DHT22;6757;52.258;12.840;2023-05-10T15:42:06;19.90;92.20
7461;DHT22;6757;52.258;12.840;2023-05-10T15:44:33;19.90;92.30
7461;DHT22;6757;52.258;12.840;2023-05-10T15:47:00;19.90;92.40
7461;DHT22;6757;52.258;12.840;2023-05-10T15:49:28;19.90;92.60
7461;DHT22;6757;52.258;12.840;2023-05-10T15:51:57;19.80;92.80
7461;DHT22;6757;52.258;12.840;2023-05-10T15:54:24;19.80;92.90
7461;DHT22;6757;52.258;12.840;2023-05-10T15:56:51;19.80;93.00
7461;DHT22;6757;52.258;12.840;2023-05-10T15:59:19;19.80;93.20
7461;DHT22;6757;52.258;12.840;2023-05-10T16:01:46;19.80;93.30
7461;DHT22;6757;52.258;12.840;2023-05-10T16:04:13;19.80;93.40
7461;DHT22;6757;52.258;12.840;2023-05-10T16:06:39;19.80;93.50
7461;DHT22;6757;52.258;12.840;2023-05-10T16:09:08;19.80;93.50
7461;DHT22;6757;52.258;12.840;2023-05-10T16:11:35;19.80;93.60